createdAt,value
2022-10-10T00:01:57.746Z,5.40
2022-10-10T00:04:26.544Z,5.27
2022-10-10T00:06:55.213Z,5.23
2022-10-10T00:09:23.842Z,5.33
2022-10-10T00:11:52.637Z,4.97
2022-10-10T00:14:21.720Z,5.30
2022-10-10T00:16:51.771Z,4.37
2022-10-10T00:19:20.395Z,5.30
2022-10-10T00:21:49.334Z,5.00
2022-10-10T00:24:17.977Z,5.20
2022-10-10T00:26:46.628Z,4.73
2022-10-10T00:29:15.692Z,4.70
2022-10-10T00:31:44.296Z,4.93
2022-10-10T00:34:14.269Z,5.10
2022-10-10T00:36:43.619Z,4.73
2022-10-10T00:39:12.763Z,5.37
2022-10-10T00:41:41.746Z,4.30
2022-10-10T00:44:12.798Z,5.07
2022-10-10T00:46:42.662Z,5.43
2022-10-10T00:49:15.938Z,4.67
2022-10-10T00:51:46.722Z,5.00
2022-10-10T00:54:17.696Z,4.90
2022-10-10T00:56:50.645Z,4.90
2022-10-10T00:59:21.710Z,4.13
2022-10-10T01:01:50.709Z,5.10
2022-10-10T01:04:44.352Z,4.73
2022-10-10T01:07:17.525Z,3.50
2022-10-10T01:09:48.187Z,4.80
2022-10-10T01:12:23.329Z,4.80
2022-10-10T01:15:00.657Z,5.03
2022-10-10T01:17:35.401Z,3.83
2022-10-10T01:20:34.915Z,4.83
2022-10-10T01:23:40.120Z,3.60
2022-10-10T01:26:30.298Z,3.70
2022-10-10T01:29:04.333Z,5.07
2022-10-10T01:31:36.577Z,5.07
2022-10-10T01:34:14.369Z,3.73
2022-10-10T01:36:54.100Z,3.53
2022-10-10T01:39:31.026Z,4.30
2022-10-10T01:42:06.531Z,3.57
2022-10-10T01:44:36.455Z,3.87
2022-10-10T01:47:05.398Z,4.30
2022-10-10T01:49:35.243Z,3.30
2022-10-10T01:52:18.284Z,3.50
2022-10-10T01:55:00.873Z,3.40
2022-10-10T01:57:41.564Z,3.50
2022-10-10T02:00:14.543Z,4.70
2022-10-10T02:02:53.132Z,4.17
2022-10-10T02:05:28.998Z,3.40
2022-10-10T02:08:00.847Z,3.63
2022-10-10T02:10:33.019Z,3.80
2022-10-10T02:13:04.002Z,3.50
2022-10-10T02:15:39.826Z,3.57
2022-10-10T02:18:11.688Z,3.60
2022-10-10T02:20:41.025Z,4.10
2022-10-10T02:23:15.757Z,3.67
2022-10-10T02:25:47.592Z,3.37
2022-10-10T02:28:22.734Z,3.40
2022-10-10T02:30:57.406Z,4.00
2022-10-10T02:33:31.446Z,3.60
2022-10-10T02:36:01.741Z,4.70
2022-10-10T02:38:31.111Z,3.63
2022-10-10T02:41:04.237Z,3.77
2022-10-10T02:43:34.157Z,3.67
2022-10-10T02:46:09.297Z,4.63
2022-10-10T02:48:41.071Z,3.53
2022-10-10T02:51:10.554Z,3.77
2022-10-10T02:53:39.941Z,4.37
2022-10-10T02:56:08.925Z,5.40
2022-10-10T02:58:37.563Z,3.47
2022-10-10T03:01:07.690Z,3.97
2022-10-10T03:03:36.671Z,4.00
2022-10-10T03:06:05.572Z,4.00
2022-10-10T03:08:34.117Z,3.87
2022-10-10T03:11:03.235Z,4.30
2022-10-10T03:13:33.263Z,3.87
2022-10-10T03:16:02.289Z,3.83
2022-10-10T03:18:33.405Z,4.00
2022-10-10T03:21:01.894Z,4.57
2022-10-10T03:23:30.556Z,4.20
2022-10-10T03:25:59.077Z,3.67
2022-10-10T03:28:28.160Z,4.20
2022-10-10T03:30:56.880Z,4.00
2022-10-10T03:33:25.528Z,4.37
2022-10-10T03:35:55.433Z,5.50
2022-10-10T03:38:24.355Z,4.80
2022-10-10T03:40:53.044Z,4.90
2022-10-10T03:43:21.544Z,4.77
2022-10-10T03:45:50.008Z,7.17
2022-10-10T03:48:19.165Z,5.00
2022-10-10T03:50:47.675Z,5.07
2022-10-10T03:53:17.641Z,5.23
2022-10-10T03:55:46.362Z,4.83
2022-10-10T03:58:15.182Z,5.60
2022-10-10T04:00:43.679Z,5.20
2022-10-10T04:03:12.164Z,5.63
2022-10-10T04:05:40.954Z,5.50
2022-10-10T04:08:09.448Z,5.70
2022-10-10T04:10:39.460Z,7.90
2022-10-10T04:13:08.411Z,6.00
2022-10-10T04:15:37.368Z,5.80
2022-10-10T04:18:06.110Z,5.93
2022-10-10T04:20:35.137Z,5.47
2022-10-10T04:23:03.803Z,6.10
2022-10-10T04:25:32.638Z,8.20
2022-10-10T04:28:03.045Z,6.30
2022-10-10T04:30:35.018Z,6.67
2022-10-10T04:33:03.599Z,6.17
2022-10-10T04:35:32.101Z,6.30
2022-10-10T04:38:00.677Z,8.20
2022-10-10T04:40:29.442Z,6.10
2022-10-10T04:42:58.097Z,6.20
2022-10-10T04:45:28.848Z,6.07
2022-10-10T04:47:57.664Z,6.73
2022-10-10T04:50:26.495Z,7.13
2022-10-10T04:52:55.094Z,8.87
2022-10-10T04:55:23.995Z,7.47
2022-10-10T04:57:52.560Z,8.07
2022-10-10T05:00:21.261Z,7.80
2022-10-10T05:02:51.348Z,7.17
2022-10-10T05:05:20.517Z,7.40
2022-10-10T05:07:54.448Z,6.73
2022-10-10T05:10:24.221Z,6.83
2022-10-10T05:12:54.312Z,7.03
2022-10-10T05:15:27.105Z,6.63
2022-10-10T05:17:57.274Z,6.60
2022-10-10T05:20:26.284Z,6.80
2022-10-10T05:22:54.832Z,6.23
2022-10-10T05:25:23.417Z,6.50
2022-10-10T05:27:52.259Z,7.67
2022-10-10T05:30:21.459Z,7.30
2022-10-10T05:32:50.198Z,8.83
2022-10-10T05:35:20.892Z,7.27
2022-10-10T05:37:49.739Z,7.10
2022-10-10T05:40:19.599Z,6.90
2022-10-10T05:42:48.494Z,6.87
2022-10-10T05:45:17.440Z,7.77
2022-10-10T05:47:46.769Z,7.03
2022-10-10T05:50:31.965Z,6.33
2022-10-10T05:53:00.526Z,6.50
2022-10-10T05:55:29.699Z,6.97
2022-10-10T05:57:58.368Z,5.83
2022-10-10T06:00:27.751Z,6.30
2022-10-10T06:02:59.301Z,6.80
2022-10-10T06:05:29.836Z,6.30
2022-10-10T06:08:10.760Z,6.00
2022-10-10T06:10:43.455Z,5.93
2022-10-10T06:13:13.142Z,6.20
2022-10-10T06:15:41.740Z,5.47
2022-10-10T06:18:11.443Z,5.60
2022-10-10T06:20:42.886Z,5.53
2022-10-10T06:23:11.503Z,5.60
2022-10-10T06:25:41.810Z,6.43
2022-10-10T06:28:11.562Z,8.93
2022-10-10T06:30:44.036Z,8.23
2022-10-10T06:33:15.654Z,5.87
2022-10-10T06:35:47.875Z,5.90
2022-10-10T06:38:20.968Z,5.67
2022-10-10T06:40:50.289Z,5.30
2022-10-10T06:43:19.659Z,5.83
2022-10-10T06:45:57.319Z,5.80
2022-10-10T06:48:27.647Z,5.50
2022-10-10T06:51:04.832Z,5.40
2022-10-10T06:53:39.971Z,6.20
2022-10-10T06:56:09.220Z,5.87
2022-10-10T06:58:39.371Z,5.37
2022-10-10T07:01:15.250Z,6.10
2022-10-10T07:03:47.746Z,5.60
2022-10-10T07:06:20.272Z,7.00
2022-10-10T07:08:50.888Z,5.63
2022-10-10T07:11:19.774Z,8.13
2022-10-10T07:13:53.899Z,8.83
2022-10-10T07:16:25.630Z,8.07
2022-10-10T07:18:55.741Z,7.40
2022-10-10T07:21:31.572Z,7.93
2022-10-10T07:24:00.504Z,8.47
2022-10-10T07:26:37.825Z,7.60
2022-10-10T07:29:07.651Z,7.73
2022-10-10T07:31:36.725Z,7.40
2022-10-10T07:34:09.471Z,6.60
2022-10-10T07:36:43.930Z,7.10
2022-10-10T07:39:17.011Z,8.23
2022-10-10T07:41:46.627Z,7.80
2022-10-10T07:44:19.076Z,8.43
2022-10-10T07:46:55.570Z,8.23
2022-10-10T07:49:26.505Z,8.23
2022-10-10T07:52:07.218Z,8.50
2022-10-10T07:54:46.341Z,8.37
2022-10-10T07:57:18.452Z,8.50
2022-10-10T07:59:55.657Z,8.40
2022-10-10T08:02:31.168Z,9.60
2022-10-10T08:05:05.610Z,8.67
2022-10-10T08:07:37.596Z,9.63
2022-10-10T08:10:15.161Z,8.93
2022-10-10T08:12:45.164Z,8.83
2022-10-10T08:15:21.878Z,9.20
2022-10-10T08:17:54.281Z,9.30
2022-10-10T08:20:33.960Z,9.37
2022-10-10T08:23:06.901Z,9.80
2022-10-10T08:25:39.686Z,8.77
2022-10-10T08:28:13.073Z,8.97
2022-10-10T08:30:45.839Z,8.70
2022-10-10T08:33:29.394Z,7.80
2022-10-10T08:36:09.885Z,7.33
2022-10-10T08:38:53.072Z,6.93
2022-10-10T08:41:47.763Z,6.97
2022-10-10T08:44:27.798Z,7.20
2022-10-10T08:47:09.156Z,6.53
2022-10-10T08:49:44.720Z,6.00
2022-10-10T08:52:30.014Z,6.20
2022-10-10T08:55:23.383Z,5.50
2022-10-10T08:57:57.756Z,5.67
2022-10-10T09:00:34.042Z,4.97
2022-10-10T09:03:25.832Z,5.20
2022-10-10T09:06:19.482Z,4.10
2022-10-10T09:09:02.591Z,3.93
2022-10-10T09:11:50.710Z,3.97
2022-10-10T09:14:41.877Z,4.00
2022-10-10T09:17:25.498Z,4.27
2022-10-10T09:20:11.714Z,3.87
2022-10-10T09:22:54.667Z,3.90
2022-10-10T09:25:36.409Z,3.67
2022-10-10T09:28:14.614Z,3.73
2022-10-10T09:31:00.100Z,3.20
2022-10-10T09:33:52.757Z,3.73
2022-10-10T09:36:26.542Z,3.53
2022-10-10T09:39:02.668Z,3.43
2022-10-10T09:41:38.597Z,3.10
2022-10-10T09:44:14.089Z,3.20
2022-10-10T09:46:48.533Z,2.60
2022-10-10T09:49:19.551Z,2.43
2022-10-10T09:51:50.967Z,2.63
2022-10-10T09:54:26.032Z,2.63
2022-10-10T09:57:00.577Z,2.80
2022-10-10T09:59:52.206Z,2.57
2022-10-10T10:02:37.959Z,2.70
2022-10-10T10:05:26.782Z,2.67
2022-10-10T10:08:05.076Z,3.40
2022-10-10T10:10:49.193Z,4.43
2022-10-10T10:13:38.127Z,3.57
2022-10-10T10:16:18.446Z,5.30
2022-10-10T10:18:56.030Z,3.80
2022-10-10T10:21:29.109Z,2.90
2022-10-10T10:24:03.328Z,3.17
2022-10-10T10:26:47.872Z,3.60
2022-10-10T10:29:39.348Z,3.23
2022-10-10T10:32:29.410Z,3.13
2022-10-10T10:35:30.874Z,3.30
2022-10-10T10:38:27.523Z,3.37
2022-10-10T10:41:08.150Z,3.00
2022-10-10T10:44:02.771Z,3.03
2022-10-10T10:46:51.511Z,3.10
2022-10-10T10:49:35.544Z,2.67
2022-10-10T10:52:41.152Z,3.13
2022-10-10T10:55:33.168Z,2.50
2022-10-10T10:59:35.757Z,2.83
2022-10-10T11:01:56.821Z,3.10
2022-10-10T11:05:29.013Z,2.87
2022-10-10T11:08:41.918Z,3.03
2022-10-10T11:11:45.060Z,2.80
2022-10-10T11:14:30.414Z,2.37
2022-10-10T11:17:23.215Z,2.67
2022-10-10T11:20:05.633Z,2.43
2022-10-10T11:22:47.539Z,2.27
2022-10-10T11:25:30.711Z,2.40
2022-10-10T11:28:11.724Z,2.60
2022-10-10T11:30:49.019Z,3.03
2022-10-10T11:33:23.987Z,2.77
2022-10-10T11:36:05.573Z,2.67
2022-10-10T11:38:48.258Z,2.23
2022-10-10T11:41:36.003Z,2.80
2022-10-10T11:44:15.788Z,2.57
2022-10-10T11:46:57.434Z,2.87
2022-10-10T11:49:39.559Z,2.67
2022-10-10T11:55:41.277Z,2.60
2022-10-10T11:58:35.531Z,2.77
2022-10-10T12:01:20.598Z,2.70
2022-10-10T12:04:28.230Z,2.80
2022-10-10T12:07:09.836Z,2.67
2022-10-10T12:09:57.302Z,3.13
2022-10-10T12:12:35.686Z,3.17
2022-10-10T12:15:18.429Z,2.87
2022-10-10T12:17:52.862Z,2.80
2022-10-10T12:20:55.079Z,3.00
2022-10-10T12:23:43.871Z,3.10
2022-10-10T12:26:26.864Z,3.40
2022-10-10T12:29:25.871Z,3.03
2022-10-10T12:32:28.445Z,3.33
2022-10-10T12:35:25.152Z,2.80
2022-10-10T12:38:15.311Z,3.13
2022-10-10T12:41:19.817Z,3.20
2022-10-10T12:44:21.465Z,2.90
2022-10-10T12:47:46.273Z,2.90
2022-10-10T12:50:28.365Z,3.70
2022-10-10T12:53:01.921Z,3.60
2022-10-10T12:56:07.338Z,3.40
2022-10-10T12:58:43.154Z,4.17
2022-10-10T13:01:38.507Z,3.70
2022-10-10T13:04:21.456Z,4.43
2022-10-10T13:07:01.876Z,3.87
2022-10-10T13:09:41.890Z,3.57
2022-10-10T13:12:37.774Z,3.80
2022-10-10T13:15:22.088Z,4.03
2022-10-10T13:17:55.151Z,3.57
2022-10-10T13:20:48.112Z,4.17
2022-10-10T13:23:20.826Z,3.00
2022-10-10T13:25:51.884Z,2.93
2022-10-10T13:28:23.730Z,3.00
2022-10-10T13:31:04.127Z,2.63
2022-10-10T13:33:39.443Z,2.37
2022-10-10T13:36:11.471Z,2.63
2022-10-10T13:38:47.676Z,2.60
2022-10-10T13:41:33.672Z,2.37
2022-10-10T13:44:08.795Z,2.20
2022-10-10T13:46:44.673Z,2.57
2022-10-10T13:49:33.779Z,3.10
2022-10-10T13:52:23.076Z,2.10
2022-10-10T13:55:08.807Z,3.23
2022-10-10T13:57:56.194Z,2.47
2022-10-10T14:00:37.538Z,2.00
2022-10-10T14:03:38.943Z,2.37
2022-10-10T14:06:23.312Z,2.70
2022-10-10T14:08:56.649Z,2.67
2022-10-10T14:11:39.336Z,3.50
2022-10-10T14:14:23.775Z,2.13
2022-10-10T14:17:12.851Z,2.30
2022-10-10T14:19:48.780Z,2.30
2022-10-10T14:22:27.356Z,2.30
2022-10-10T14:25:03.677Z,2.47
2022-10-10T14:27:37.317Z,3.93
2022-10-10T14:30:18.843Z,2.67
2022-10-10T14:32:51.556Z,2.80
2022-10-10T14:35:43.194Z,2.40
2022-10-10T14:38:29.087Z,2.33
2022-10-10T14:40:59.356Z,2.73
2022-10-10T14:43:33.865Z,2.37
2022-10-10T14:46:08.446Z,2.43
2022-10-10T14:48:46.327Z,2.90
2022-10-10T14:51:35.193Z,2.67
2022-10-10T14:54:17.340Z,2.50
2022-10-10T14:57:08.680Z,2.73
2022-10-10T14:59:49.754Z,2.53
2022-10-10T15:02:23.804Z,2.87
2022-10-10T15:04:56.017Z,2.87
2022-10-10T15:07:31.924Z,2.90
2022-10-10T15:10:32.780Z,3.10
2022-10-10T15:13:04.172Z,2.90
2022-10-10T15:15:45.823Z,3.10
2022-10-10T15:18:47.799Z,3.37
2022-10-10T15:21:33.879Z,3.10
2022-10-10T15:24:11.910Z,3.20
2022-10-10T15:26:52.946Z,3.03
2022-10-10T15:29:33.225Z,3.00
2022-10-10T15:32:03.340Z,3.50
2022-10-10T15:34:49.665Z,3.37
2022-10-10T15:37:29.256Z,4.13
2022-10-10T15:40:22.832Z,3.80
2022-10-10T15:43:07.511Z,3.87
2022-10-10T15:45:55.944Z,4.60
2022-10-10T15:48:25.573Z,4.33
2022-10-10T15:50:58.723Z,4.60
2022-10-10T15:53:37.360Z,4.40
2022-10-10T15:56:10.660Z,4.97
2022-10-10T15:58:45.204Z,5.53
2022-10-10T16:01:21.417Z,5.23
2022-10-10T16:03:53.018Z,5.40
2022-10-10T16:06:25.988Z,6.63
2022-10-10T16:09:16.280Z,6.70
2022-10-10T16:12:01.052Z,6.97
2022-10-10T16:14:42.990Z,6.30
2022-10-10T16:17:22.225Z,6.37
2022-10-10T16:20:06.379Z,5.57
2022-10-10T16:22:43.983Z,6.20
2022-10-10T16:25:22.311Z,6.13
2022-10-10T16:28:08.362Z,6.33
2022-10-10T16:31:01.495Z,6.50
2022-10-10T16:33:42.594Z,6.10
2022-10-10T16:36:17.823Z,6.50
2022-10-10T16:38:50.924Z,6.47
2022-10-10T16:41:46.593Z,32.87
2022-10-10T16:44:17.309Z,17.67
2022-10-10T16:46:52.094Z,17.10
2022-10-10T16:49:24.170Z,10.17
2022-10-10T16:52:06.631Z,10.37
2022-10-10T16:54:39.383Z,13.60
2022-10-10T16:57:21.852Z,8.40
2022-10-10T17:00:00.059Z,5.80
2022-10-10T17:02:31.692Z,12.23
2022-10-10T17:05:11.879Z,5.00
2022-10-10T17:07:46.423Z,4.83
2022-10-10T17:10:22.452Z,9.80
2022-10-10T17:12:52.026Z,46.23
2022-10-10T17:15:36.444Z,32.70
2022-10-10T17:18:15.178Z,16.73
2022-10-10T17:20:49.039Z,4.23
2022-10-10T17:23:22.657Z,5.17
2022-10-10T17:26:11.983Z,12.37
2022-10-10T17:29:10.725Z,2.97
2022-10-10T17:32:00.549Z,3.10
2022-10-10T17:34:44.858Z,1.90
2022-10-10T17:37:38.524Z,2.20
2022-10-10T17:40:31.773Z,3.00
2022-10-10T17:43:09.855Z,3.63
2022-10-10T17:45:46.545Z,1.70
2022-10-10T17:48:25.360Z,1.60
2022-10-10T17:51:07.867Z,1.80
2022-10-10T17:53:42.219Z,2.00
2022-10-10T17:56:27.133Z,1.97
2022-10-10T17:59:10.264Z,2.03
2022-10-10T18:01:47.902Z,2.30
2022-10-10T18:04:24.813Z,1.70
2022-10-10T18:07:06.012Z,1.90
2022-10-10T18:09:56.817Z,2.13
2022-10-10T18:12:44.177Z,2.10
2022-10-10T18:15:23.481Z,5.50
2022-10-10T18:18:09.325Z,10.80
2022-10-10T18:20:41.650Z,3.53
2022-10-10T18:23:17.901Z,5.47
2022-10-10T18:25:51.081Z,2.60
2022-10-10T18:28:32.951Z,1.97
2022-10-10T18:31:13.434Z,1.63
2022-10-10T18:34:00.891Z,2.20
2022-10-10T18:36:43.014Z,1.80
2022-10-10T18:39:23.605Z,2.50
2022-10-10T18:41:59.971Z,1.70
2022-10-10T18:44:41.416Z,2.23
2022-10-10T18:47:13.503Z,2.10
2022-10-10T18:49:48.550Z,2.20
2022-10-10T18:52:34.318Z,2.23
2022-10-10T18:55:28.810Z,2.20
2022-10-10T18:58:02.669Z,2.07
2022-10-10T19:00:41.636Z,2.20
2022-10-10T19:03:17.488Z,2.10
2022-10-10T19:06:00.511Z,1.80
2022-10-10T19:08:34.565Z,1.67
2022-10-10T19:11:25.231Z,1.60
2022-10-10T19:14:02.705Z,1.97
2022-10-10T19:16:45.443Z,1.90
2022-10-10T19:19:35.312Z,1.80
2022-10-10T19:22:11.301Z,1.77
2022-10-10T19:24:53.725Z,1.90
2022-10-10T19:27:32.534Z,2.03
2022-10-10T19:30:06.631Z,2.60
2022-10-10T19:35:24.266Z,2.70
2022-10-10T19:37:55.812Z,2.50
2022-10-10T19:40:25.647Z,2.70
2022-10-10T19:43:06.953Z,3.90
2022-10-10T19:45:52.938Z,4.10
2022-10-10T19:48:26.597Z,5.73
2022-10-10T19:51:14.198Z,7.27
2022-10-10T19:53:53.951Z,9.00
2022-10-10T19:56:28.987Z,9.80
2022-10-10T19:59:06.298Z,10.07
2022-10-10T20:01:45.167Z,9.73
2022-10-10T20:04:26.775Z,10.33
2022-10-10T20:07:03.091Z,9.50
2022-10-10T20:09:37.579Z,8.23
2022-10-10T20:12:12.781Z,7.33
2022-10-10T20:14:46.274Z,6.53
2022-10-10T20:17:35.758Z,6.53
2022-10-10T20:20:18.064Z,6.60
2022-10-10T20:22:57.076Z,6.27
2022-10-10T20:25:39.794Z,5.90
2022-10-10T20:28:14.537Z,6.03
2022-10-10T20:31:01.526Z,6.43
2022-10-10T20:33:36.062Z,5.73
2022-10-10T20:36:16.296Z,5.30
2022-10-10T20:38:56.986Z,5.37
2022-10-10T20:41:37.338Z,5.60
2022-10-10T20:44:20.893Z,4.10
2022-10-10T20:47:09.695Z,4.70
2022-10-10T20:49:46.904Z,4.43
2022-10-10T20:52:23.194Z,5.23
2022-10-10T20:55:03.521Z,6.53
2022-10-10T20:57:39.837Z,7.73
2022-10-10T21:00:23.347Z,8.60
2022-10-10T21:03:02.001Z,10.57
2022-10-10T21:05:39.859Z,10.40
2022-10-10T21:08:19.951Z,10.13
2022-10-10T21:10:55.609Z,9.50
2022-10-10T21:13:31.199Z,8.97
2022-10-10T21:16:00.913Z,8.07
2022-10-10T21:18:38.298Z,7.27
2022-10-10T21:21:17.453Z,7.00
2022-10-10T21:23:55.827Z,6.93
2022-10-10T21:26:32.270Z,7.50
2022-10-10T21:29:06.136Z,6.20
2022-10-10T21:31:38.532Z,6.53
2022-10-10T21:34:31.277Z,6.40
2022-10-10T21:37:10.658Z,6.60
2022-10-10T21:39:46.763Z,6.40
2022-10-10T21:42:20.233Z,6.47
2022-10-10T21:44:56.877Z,6.30
2022-10-10T21:47:32.241Z,6.57
2022-10-10T21:50:42.256Z,6.00
2022-10-10T21:53:29.221Z,6.87
2022-10-10T21:56:03.994Z,6.00
2022-10-10T21:58:40.874Z,5.70
2022-10-10T22:01:20.958Z,5.77
2022-10-10T22:04:03.256Z,5.20
2022-10-10T22:06:40.321Z,5.93
2022-10-10T22:09:16.786Z,5.67
2022-10-10T22:11:53.359Z,5.20
2022-10-10T22:14:27.246Z,5.27
2022-10-10T22:16:59.547Z,4.70
2022-10-10T22:19:29.641Z,5.00
2022-10-10T22:22:03.319Z,4.57
2022-10-10T22:24:34.671Z,5.47
2022-10-10T22:27:07.027Z,4.93
2022-10-10T22:29:38.516Z,4.90
2022-10-10T22:32:09.850Z,5.03
2022-10-10T22:34:41.427Z,5.23
2022-10-10T22:37:13.124Z,5.77
2022-10-10T22:39:47.294Z,5.23
2022-10-10T22:42:23.971Z,5.87
2022-10-10T22:44:54.005Z,5.50
2022-10-10T22:47:24.488Z,5.60
2022-10-10T22:49:55.644Z,5.77
2022-10-10T22:52:28.852Z,5.83
2022-10-10T22:54:59.942Z,5.80
2022-10-10T22:57:31.401Z,5.80
2022-10-10T23:00:01.351Z,5.63
2022-10-10T23:02:30.742Z,5.27
2022-10-10T23:05:01.030Z,5.50
2022-10-10T23:07:31.186Z,5.20
2022-10-10T23:10:00.260Z,5.27
2022-10-10T23:12:30.127Z,5.23
2022-10-10T23:15:04.395Z,5.07
2022-10-10T23:17:35.894Z,5.43
2022-10-10T23:20:06.850Z,5.20
2022-10-10T23:22:37.792Z,5.20
2022-10-10T23:25:07.599Z,5.10
2022-10-10T23:27:37.502Z,5.87
2022-10-10T23:30:07.450Z,4.40
2022-10-10T23:32:36.777Z,5.27
2022-10-10T23:35:06.118Z,5.03
2022-10-10T23:37:37.027Z,5.27
2022-10-10T23:40:09.818Z,4.67
2022-10-10T23:42:38.543Z,5.00
2022-10-10T23:45:09.056Z,5.40
2022-10-10T23:47:39.729Z,4.37
2022-10-10T23:50:09.087Z,4.60
2022-10-10T23:52:43.635Z,4.50
2022-10-10T23:55:13.276Z,4.20
2022-10-10T23:57:42.839Z,4.20
